Time;durP1;ratioP1;P1;durP2;ratioP2;P2;SDS_P1;SDS_P2;PMS_P1;PMS_P2;Temp;Humidity;BMP_temperature;BMP_pressure;BME280_temperature;BME280_humidity;BME280_pressure;Samples;Min_cycle;Max_cycle;Signal;HPM_P1;HPM_P2
2022/07/23 00:00:05;;;;;;;15.05;7.20;;;13.80;99.90;;;;;;5066213;28;20395;-72
2022/07/23 00:02:31;;;;;;;16.50;7.15;;;13.70;99.90;;;;;;5066855;28;20483;-72
2022/07/23 00:04:57;;;;;;;20.90;7.43;;;13.60;99.90;;;;;;5065453;28;20043;-73
2022/07/23 00:07:22;;;;;;;15.75;7.30;;;13.70;99.90;;;;;;5065472;28;20406;-73
2022/07/23 00:09:48;;;;;;;18.92;7.50;;;13.70;99.90;;;;;;5063902;28;20048;-73
2022/07/23 00:12:13;;;;;;;13.98;7.13;;;13.60;99.90;;;;;;5068621;28;20036;-73
2022/07/23 00:14:39;;;;;;;19.90;8.32;;;13.40;99.90;;;;;;5084460;28;20045;-73
2022/07/23 00:17:04;;;;;;;19.17;8.57;;;13.50;99.90;;;;;;5065431;28;20431;-73
2022/07/23 00:19:30;;;;;;;19.58;8.88;;;13.50;99.90;;;;;;5064376;28;20375;-72
2022/07/23 00:21:55;;;;;;;15.02;7.20;;;13.30;99.90;;;;;;5069383;28;20067;-73
2022/07/23 00:24:21;;;;;;;18.00;8.15;;;13.40;99.90;;;;;;5068858;28;20082;-73
2022/07/23 00:26:46;;;;;;;23.48;8.93;;;13.30;99.90;;;;;;5066153;28;20041;-72
2022/07/23 00:29:12;;;;;;;17.02;7.05;;;13.30;99.90;;;;;;5067849;28;20467;-73
2022/07/23 00:31:38;;;;;;;19.50;7.88;;;13.40;99.90;;;;;;5058406;28;20036;-73
2022/07/23 00:34:03;;;;;;;16.23;5.65;;;13.30;99.90;;;;;;5065546;28;20048;-72
2022/07/23 00:36:31;;;;;;;12.25;5.72;;;13.10;99.90;;;;;;5053839;28;20040;-72
2022/07/23 00:38:56;;;;;;;14.20;6.60;;;13.10;99.90;;;;;;5076873;28;20044;-72
2022/07/23 00:41:22;;;;;;;17.55;7.75;;;13.30;99.90;;;;;;5068570;28;20037;-72
2022/07/23 00:43:48;;;;;;;8.00;4.28;;;13.20;99.90;;;;;;5064169;28;20082;-72
2022/07/23 00:46:21;;;;;;;5.97;2.22;;;13.20;99.90;;;;;;5064324;28;20097;-73
2022/07/23 00:48:48;;;;;;;5.22;1.70;;;13.00;99.90;;;;;;5065360;28;20119;-73
2022/07/23 00:51:15;;;;;;;10.90;2.00;;;13.00;99.90;;;;;;5066625;28;20079;-72
2022/07/23 00:53:41;;;;;;;3.55;1.65;;;12.80;99.90;;;;;;5067384;28;20036;-71
2022/07/23 00:56:08;;;;;;;4.45;2.10;;;12.80;99.90;;;;;;5069339;28;20149;-72
2022/07/23 00:58:35;;;;;;;12.43;4.35;;;12.80;99.90;;;;;;5080030;28;20036;-71
2022/07/23 01:01:02;;;;;;;6.65;3.38;;;12.80;99.90;;;;;;5070786;28;20093;-71
2022/07/23 01:03:27;;;;;;;12.88;3.53;;;12.70;99.90;;;;;;5070630;28;20036;-70
2022/07/23 01:05:53;;;;;;;5.53;2.78;;;12.60;99.90;;;;;;5053532;28;20044;-70
2022/07/23 01:08:19;;;;;;;14.02;4.10;;;12.60;99.90;;;;;;5068007;28;20068;-70
2022/07/23 01:10:48;;;;;;;7.97;3.17;;;12.60;99.90;;;;;;5062802;28;20032;-70
2022/07/23 01:13:13;;;;;;;13.55;6.28;;;12.70;99.90;;;;;;5070390;28;20048;-70
2022/07/23 01:15:39;;;;;;;11.13;4.85;;;12.60;99.90;;;;;;5069803;28;20047;-70
2022/07/23 01:18:06;;;;;;;15.32;5.85;;;12.60;99.90;;;;;;5067582;28;20490;-70
2022/07/23 01:20:32;;;;;;;12.45;6.25;;;12.70;99.90;;;;;;5066542;28;20367;-70
2022/07/23 01:22:58;;;;;;;13.20;5.50;;;12.70;99.90;;;;;;5069948;28;20068;-70
2022/07/23 01:25:24;;;;;;;10.13;4.40;;;12.70;99.90;;;;;;5069944;28;20479;-70
2022/07/23 01:27:52;;;;;;;7.57;3.90;;;12.70;99.90;;;;;;5066105;28;20436;-70
2022/07/23 01:30:18;;;;;;;9.88;4.30;;;12.60;99.90;;;;;;5066307;28;20032;-70
2022/07/23 01:32:44;;;;;;;9.70;4.75;;;12.70;99.90;;;;;;5062297;28;20043;-70
2022/07/23 01:35:10;;;;;;;7.90;3.78;;;12.60;99.90;;;;;;5069026;28;20177;-69
2022/07/23 01:37:36;;;;;;;7.20;3.90;;;12.60;99.90;;;;;;5057881;28;20036;-69
2022/07/23 01:40:02;;;;;;;11.27;5.45;;;12.50;99.90;;;;;;5069245;28;20040;-69
2022/07/23 01:42:28;;;;;;;17.00;5.78;;;12.50;99.90;;;;;;5068389;28;20037;-69
2022/07/23 01:44:53;;;;;;;40.13;5.82;;;12.50;99.90;;;;;;5068511;28;20088;-69
2022/07/23 01:47:19;;;;;;;36.45;4.60;;;12.50;99.90;;;;;;5068624;28;20036;-69
2022/07/23 01:49:44;;;;;;;18.13;4.07;;;12.40;99.90;;;;;;5064541;28;20567;-69
2022/07/23 01:52:10;;;;;;;7.13;4.00;;;12.40;99.90;;;;;;5065435;28;20051;-69
2022/07/23 01:54:38;;;;;;;10.77;3.53;;;12.30;99.90;;;;;;5061232;28;20068;-69
2022/07/23 01:57:04;;;;;;;6.43;3.65;;;12.30;99.90;;;;;;5063710;28;20033;-69
2022/07/23 01:59:30;;;;;;;5.82;3.38;;;12.30;99.90;;;;;;5068915;28;20094;-69
2022/07/23 02:01:55;;;;;;;5.43;3.47;;;12.30;99.90;;;;;;5066619;28;20041;-69
2022/07/23 02:04:22;;;;;;;3.92;2.58;;;12.20;99.90;;;;;;5057187;28;20602;-69
2022/07/23 02:06:48;;;;;;;3.47;1.55;;;12.20;99.90;;;;;;5060454;28;20059;-69
2022/07/23 02:09:14;;;;;;;1.67;1.10;;;12.20;99.90;;;;;;5059718;28;20052;-69
2022/07/23 02:11:40;;;;;;;2.20;1.40;;;12.20;99.90;;;;;;5051518;28;20376;-69
2022/07/23 02:14:06;;;;;;;2.65;1.50;;;12.10;99.90;;;;;;5061656;28;20549;-69
2022/07/23 02:16:32;;;;;;;3.53;1.65;;;12.00;99.90;;;;;;5064376;28;20081;-69
2022/07/23 02:18:57;;;;;;;4.03;1.92;;;12.00;99.90;;;;;;5067194;28;20047;-68
2022/07/23 02:21:23;;;;;;;4.43;2.30;;;12.00;99.90;;;;;;5061086;28;20094;-68
2022/07/23 02:23:48;;;;;;;7.20;3.00;;;12.00;99.90;;;;;;5052791;28;20472;-68
2022/07/23 02:26:14;;;;;;;4.70;2.67;;;12.00;99.90;;;;;;5056928;28;20316;-69
2022/07/23 02:28:40;;;;;;;3.60;1.60;;;12.00;99.90;;;;;;5068191;28;20049;-68
2022/07/23 02:31:06;;;;;;;3.20;1.30;;;12.00;99.90;;;;;;5062338;28;20086;-68
2022/07/23 02:33:32;;;;;;;4.57;2.67;;;12.00;99.90;;;;;;5063056;28;20063;-68
2022/07/23 02:35:58;;;;;;;240.05;8.52;;;12.00;99.90;;;;;;5066609;28;20040;-68
2022/07/23 02:38:24;;;;;;;289.38;9.63;;;11.80;99.90;;;;;;5072268;28;20036;-68
2022/07/23 02:40:49;;;;;;;70.72;2.78;;;11.60;99.90;;;;;;5062193;28;20037;-68
2022/07/23 02:43:15;;;;;;;2.10;1.08;;;11.30;99.90;;;;;;5062022;28;20480;-68
2022/07/23 02:45:40;;;;;;;2.80;1.70;;;11.30;99.90;;;;;;5062079;28;20032;-68
2022/07/23 02:48:06;;;;;;;3.22;1.75;;;11.30;99.90;;;;;;5063668;28;20127;-68
2022/07/23 02:50:32;;;;;;;3.75;1.70;;;11.30;99.90;;;;;;5068114;28;20395;-68
2022/07/23 02:52:57;;;;;;;3.03;1.80;;;11.40;99.90;;;;;;5063303;28;20166;-68
2022/07/23 02:55:23;;;;;;;131.95;5.22;;;11.20;99.90;;;;;;5061795;28;20037;-67
2022/07/23 02:57:49;;;;;;;99.28;4.40;;;11.30;99.90;;;;;;5065969;28;20124;-68
2022/07/23 03:00:14;;;;;;;3.55;1.00;;;11.20;99.90;;;;;;5066294;28;20036;-68
2022/07/23 03:02:40;;;;;;;67.22;3.33;;;11.10;99.90;;;;;;5067223;28;20036;-67
2022/07/23 03:05:06;;;;;;;23.17;1.98;;;11.00;99.90;;;;;;5068005;28;20094;-68
2022/07/23 03:07:32;;;;;;;1.77;1.10;;;10.90;99.90;;;;;;5066469;28;21284;-68
2022/07/23 03:09:57;;;;;;;1.88;1.20;;;10.90;99.90;;;;;;5067417;28;20153;-68
2022/07/23 03:12:23;;;;;;;3.10;1.80;;;10.90;99.90;;;;;;5061250;28;20041;-68
2022/07/23 03:14:48;;;;;;;5.97;2.63;;;10.90;99.90;;;;;;5060034;28;20395;-68
2022/07/23 03:17:14;;;;;;;5.10;2.60;;;11.10;99.90;;;;;;5061811;28;20089;-68
2022/07/23 03:19:39;;;;;;;7.78;2.97;;;11.10;99.90;;;;;;5065615;28;20078;-68
2022/07/23 03:22:06;;;;;;;4.25;1.73;;;11.10;99.90;;;;;;5067028;28;20175;-68
2022/07/23 03:27:15;;;;;;;4.07;2.30;;;11.20;99.90;;;;;;5065685;28;20043;-68
2022/07/23 03:29:41;;;;;;;6.22;2.05;;;11.20;99.90;;;;;;5063433;28;20044;-69
2022/07/23 03:32:07;;;;;;;2.88;1.80;;;11.00;99.90;;;;;;5068554;28;20120;-69
2022/07/23 03:34:32;;;;;;;5.75;1.90;;;11.20;99.90;;;;;;5069603;28;20040;-69
2022/07/23 03:36:58;;;;;;;3.08;1.52;;;11.20;99.90;;;;;;5064023;28;20037;-69
2022/07/23 03:39:24;;;;;;;5.10;2.20;;;11.00;99.90;;;;;;5066930;28;20071;-69
2022/07/23 03:41:50;;;;;;;4.95;2.10;;;10.90;99.90;;;;;;5070693;28;20036;-69
2022/07/23 03:44:15;;;;;;;5.07;1.27;;;11.10;99.90;;;;;;5068064;28;20072;-69
2022/07/23 03:46:41;;;;;;;2.47;1.00;;;11.00;99.90;;;;;;5063595;28;20044;-69
2022/07/23 03:49:07;;;;;;;2.50;1.05;;;10.90;99.90;;;;;;5078382;28;20479;-69
2022/07/23 03:51:32;;;;;;;14.90;1.30;;;10.80;99.90;;;;;;5071400;28;20036;-69
2022/07/23 03:53:58;;;;;;;9.05;1.10;;;10.80;99.90;;;;;;5070533;28;20040;-69
2022/07/23 03:56:23;;;;;;;17.13;1.60;;;10.80;99.90;;;;;;5069505;28;20037;-69
2022/07/23 03:58:49;;;;;;;34.88;2.10;;;10.70;99.90;;;;;;5068502;28;20032;-69
2022/07/23 04:01:15;;;;;;;4.20;1.65;;;10.70;99.90;;;;;;5063642;28;20068;-69
2022/07/23 04:03:40;;;;;;;2.13;1.50;;;10.80;99.90;;;;;;5071572;28;20075;-69
2022/07/23 04:06:06;;;;;;;3.38;2.08;;;10.70;99.90;;;;;;5051976;28;20059;-70
2022/07/23 04:08:32;;;;;;;7.45;3.67;;;10.80;99.90;;;;;;5067780;28;20037;-69
2022/07/23 04:10:58;;;;;;;5.32;3.30;;;10.80;99.90;;;;;;5069634;28;20028;-70
2022/07/23 04:13:23;;;;;;;6.53;3.00;;;11.00;99.90;;;;;;5070936;28;20036;-70
2022/07/23 04:15:50;;;;;;;8.65;2.10;;;11.00;99.90;;;;;;5065925;28;20052;-70
2022/07/23 04:18:21;;;;;;;12.07;2.53;;;11.10;99.90;;;;;;5063229;28;20065;-70
2022/07/23 04:20:46;;;;;;;7.20;2.60;;;11.00;99.90;;;;;;5063973;28;20487;-70
2022/07/23 04:23:12;;;;;;;7.43;2.15;;;11.10;99.90;;;;;;5066984;28;20052;-69
2022/07/23 04:25:38;;;;;;;2.83;2.10;;;11.00;99.90;;;;;;5065189;28;20036;-69
2022/07/23 04:28:04;;;;;;;6.68;2.97;;;11.00;99.90;;;;;;5067613;28;20391;-68
2022/07/23 04:30:29;;;;;;;7.65;3.20;;;10.90;99.90;;;;;;5067522;28;20044;-68
2022/07/23 04:32:55;;;;;;;7.32;3.90;;;11.10;99.90;;;;;;5063557;28;20029;-69
2022/07/23 04:35:21;;;;;;;11.88;5.35;;;11.10;99.90;;;;;;5066674;28;20171;-68
2022/07/23 04:37:46;;;;;;;10.35;4.15;;;11.20;99.90;;;;;;5076311;28;20383;-68
2022/07/23 04:40:13;;;;;;;8.63;4.15;;;11.20;99.90;;;;;;5075557;28;20040;-68
2022/07/23 04:42:39;;;;;;;8.63;4.10;;;11.20;99.90;;;;;;5069460;28;20040;-68
2022/07/23 04:45:05;;;;;;;19.58;7.88;;;11.10;99.90;;;;;;5067012;28;20444;-67
2022/07/23 04:47:31;;;;;;;27.85;11.13;;;11.40;99.90;;;;;;5069840;28;20048;-67
2022/07/23 04:49:57;;;;;;;23.52;10.82;;;11.50;99.90;;;;;;5064215;28;20040;-67
2022/07/23 04:52:23;;;;;;;23.33;10.80;;;11.50;99.90;;;;;;5068855;28;20044;-67
2022/07/23 04:54:48;;;;;;;29.10;10.82;;;11.60;99.90;;;;;;5069380;28;20028;-66
2022/07/23 04:57:14;;;;;;;18.65;8.45;;;11.90;99.90;;;;;;5061304;28;20048;-67
2022/07/23 04:59:40;;;;;;;18.73;7.22;;;12.00;99.90;;;;;;5077903;28;20043;-67
2022/07/23 05:02:05;;;;;;;17.23;7.30;;;12.10;99.90;;;;;;5068821;28;20068;-67
2022/07/23 05:04:31;;;;;;;10.65;5.25;;;12.00;99.90;;;;;;5066563;28;20056;-66
2022/07/23 05:06:57;;;;;;;8.20;4.20;;;12.20;99.90;;;;;;5066177;28;20044;-67
2022/07/23 05:09:23;;;;;;;16.35;6.90;;;12.20;99.90;;;;;;5069623;28;20106;-67
2022/07/23 05:11:49;;;;;;;25.17;9.93;;;12.40;99.90;;;;;;5056592;28;20476;-67
2022/07/23 05:14:14;;;;;;;22.63;10.43;;;12.40;99.90;;;;;;5073121;28;20033;-68
2022/07/23 05:16:40;;;;;;;17.83;8.00;;;12.40;99.90;;;;;;5071958;28;20037;-68
2022/07/23 05:19:06;;;;;;;18.92;8.00;;;12.60;99.90;;;;;;5067975;28;20507;-68
2022/07/23 05:21:31;;;;;;;23.73;9.85;;;12.60;99.90;;;;;;5062512;28;20119;-68
2022/07/23 05:23:57;;;;;;;20.67;10.75;;;12.70;99.90;;;;;;5069069;28;20483;-69
2022/07/23 05:26:23;;;;;;;22.65;10.35;;;12.90;99.90;;;;;;5068600;28;20037;-69
2022/07/23 05:28:48;;;;;;;21.75;10.43;;;13.10;99.90;;;;;;5066926;28;20107;-69
2022/07/23 05:31:14;;;;;;;29.00;12.23;;;13.10;99.90;;;;;;5068661;28;21190;-69
2022/07/23 05:33:39;;;;;;;31.60;12.75;;;13.20;99.90;;;;;;5070553;28;20047;-69
2022/07/23 05:36:05;;;;;;;31.52;12.80;;;13.20;99.90;;;;;;5067522;28;20075;-69
2022/07/23 05:38:32;;;;;;;28.77;12.48;;;13.50;99.90;;;;;;5068313;28;20048;-69
2022/07/23 05:40:58;;;;;;;30.48;12.63;;;13.50;99.90;;;;;;5070312;28;20025;-69
2022/07/23 05:43:24;;;;;;;31.67;12.40;;;13.70;99.90;;;;;;5067527;28;20047;-69
2022/07/23 05:45:50;;;;;;;30.42;12.80;;;13.80;99.90;;;;;;5067149;28;20043;-70
2022/07/23 05:48:15;;;;;;;27.50;12.68;;;14.00;99.90;;;;;;5059596;28;20079;-69
2022/07/23 05:50:41;;;;;;;24.75;11.48;;;14.10;99.90;;;;;;5068882;28;20119;-71
2022/07/23 05:53:07;;;;;;;27.67;12.95;;;14.10;99.90;;;;;;5065920;28;20043;-72
2022/07/23 05:55:32;;;;;;;28.15;12.10;;;14.20;99.90;;;;;;5054012;28;20028;-73
2022/07/23 05:57:59;;;;;;;25.95;11.40;;;14.50;99.90;;;;;;5065432;28;20044;-71
2022/07/23 06:00:26;;;;;;;23.05;10.85;;;14.50;99.90;;;;;;5065167;28;20391;-71
2022/07/23 06:02:52;;;;;;;25.52;11.18;;;14.60;99.90;;;;;;5067315;28;20470;-72
2022/07/23 06:05:17;;;;;;;18.63;9.68;;;14.70;99.90;;;;;;5066478;28;20040;-75
2022/07/23 06:07:43;;;;;;;18.48;9.50;;;14.90;99.90;;;;;;5068422;28;20037;-73
2022/07/23 06:10:09;;;;;;;21.58;9.52;;;15.00;99.90;;;;;;5061249;28;20043;-72
2022/07/23 06:12:35;;;;;;;20.05;9.90;;;15.10;99.90;;;;;;5068203;28;20037;-73
2022/07/23 06:15:01;;;;;;;17.58;8.82;;;15.20;99.90;;;;;;5045964;28;20044;-71
2022/07/23 06:17:27;;;;;;;23.05;8.60;;;15.30;99.90;;;;;;5069315;28;20040;-72
2022/07/23 06:19:53;;;;;;;17.67;6.68;;;15.40;99.90;;;;;;5069392;28;20044;-69
2022/07/23 06:22:19;;;;;;;15.23;6.72;;;15.50;99.90;;;;;;5062806;28;20189;-72
2022/07/23 06:24:45;;;;;;;14.30;5.88;;;15.70;99.90;;;;;;5068789;28;20123;-73
2022/07/23 06:27:11;;;;;;;15.18;6.90;;;15.80;99.90;;;;;;5066631;28;20590;-73
2022/07/23 06:29:36;;;;;;;15.43;6.70;;;15.80;99.90;;;;;;5075569;28;20036;-71
2022/07/23 06:32:02;;;;;;;14.40;6.18;;;15.90;99.90;;;;;;5062793;28;20036;-73
2022/07/23 06:34:28;;;;;;;12.52;4.70;;;16.00;99.90;;;;;;5060396;28;20155;-69
2022/07/23 06:36:53;;;;;;;11.43;4.97;;;16.10;99.90;;;;;;5053228;28;20572;-72
2022/07/23 06:39:19;;;;;;;13.93;5.35;;;16.20;99.90;;;;;;5058998;28;20043;-73
2022/07/23 06:41:44;;;;;;;10.77;4.95;;;16.20;99.90;;;;;;5052567;28;20098;-71
2022/07/23 06:44:10;;;;;;;11.52;5.10;;;16.30;99.90;;;;;;5072043;28;20052;-71
2022/07/23 06:46:36;;;;;;;8.82;4.50;;;16.50;99.90;;;;;;5069020;28;20033;-70
2022/07/23 06:49:01;;;;;;;12.88;4.95;;;16.60;99.90;;;;;;5068317;28;20513;-74
2022/07/23 06:51:27;;;;;;;12.63;3.67;;;16.70;99.90;;;;;;5067610;28;20041;-70
2022/07/23 06:53:53;;;;;;;8.55;4.00;;;16.70;99.90;;;;;;5069101;28;20134;-73
2022/07/23 06:56:18;;;;;;;7.15;3.65;;;16.80;99.90;;;;;;5062315;28;20059;-71
2022/07/23 06:58:44;;;;;;;7.80;3.97;;;16.80;99.90;;;;;;5055586;28;20072;-74
2022/07/23 07:01:09;;;;;;;14.48;4.18;;;16.80;99.90;;;;;;5056318;28;20047;-73
2022/07/23 07:03:35;;;;;;;5.53;3.25;;;16.80;99.90;;;;;;5057013;28;20472;-70
2022/07/23 07:06:02;;;;;;;10.88;3.78;;;16.80;99.90;;;;;;5073977;28;20074;-73
2022/07/23 07:08:27;;;;;;;7.85;3.63;;;16.80;99.90;;;;;;5054869;28;20482;-73
2022/07/23 07:10:53;;;;;;;9.63;3.50;;;16.90;99.90;;;;;;5042840;28;20063;-70
2022/07/23 07:13:19;;;;;;;7.82;3.63;;;16.90;99.90;;;;;;5065927;28;20074;-72
2022/07/23 07:15:44;;;;;;;11.55;3.90;;;17.00;99.90;;;;;;5072471;28;20040;-70
2022/07/23 07:18:10;;;;;;;7.05;3.33;;;17.10;99.90;;;;;;5066916;28;20052;-72
2022/07/23 07:20:36;;;;;;;8.98;3.50;;;17.00;99.90;;;;;;5069906;28;20053;-70
2022/07/23 07:23:02;;;;;;;6.90;2.92;;;17.10;99.90;;;;;;5057540;28;20039;-70
2022/07/23 07:25:28;;;;;;;11.27;4.00;;;17.20;99.90;;;;;;5079350;28;20394;-70
2022/07/23 07:27:54;;;;;;;5.88;2.85;;;17.30;99.90;;;;;;5071044;28;20047;-70
2022/07/23 07:30:19;;;;;;;6.38;3.28;;;17.40;99.90;;;;;;5074068;28;20040;-71
2022/07/23 07:32:45;;;;;;;8.05;3.55;;;17.50;99.90;;;;;;5071115;28;20072;-70
2022/07/23 07:35:12;;;;;;;7.55;3.60;;;17.50;99.90;;;;;;5071827;28;20090;-69
2022/07/23 07:37:37;;;;;;;9.88;3.40;;;17.50;99.90;;;;;;5070425;28;20483;-72
2022/07/23 07:40:03;;;;;;;5.47;3.30;;;17.60;99.90;;;;;;5072088;28;20028;-73
2022/07/23 07:42:31;;;;;;;10.60;3.92;;;17.70;99.90;;;;;;5072312;28;20091;-72
2022/07/23 07:44:57;;;;;;;4.07;2.47;;;17.80;99.90;;;;;;5050193;28;20041;-70
2022/07/23 07:47:23;;;;;;;8.80;2.60;;;17.90;99.90;;;;;;5060933;28;20041;-71
2022/07/23 07:49:49;;;;;;;4.30;2.30;;;18.10;99.90;;;;;;5066258;28;20101;-70
2022/07/23 07:52:14;;;;;;;5.80;2.55;;;18.30;99.90;;;;;;5066255;28;20475;-72
2022/07/23 07:54:40;;;;;;;4.55;2.30;;;18.30;99.90;;;;;;5070891;28;20041;-73
2022/07/23 07:57:05;;;;;;;5.43;2.50;;;18.40;99.90;;;;;;5064415;28;20564;-70
2022/07/23 07:59:31;;;;;;;6.47;2.50;;;18.40;99.90;;;;;;5064890;28;20040;-70
2022/07/23 08:01:56;;;;;;;5.75;2.78;;;18.50;99.90;;;;;;5058711;28;20362;-71
2022/07/23 08:04:22;;;;;;;7.70;2.33;;;18.60;99.90;;;;;;5057844;28;20482;-70
2022/07/23 08:06:47;;;;;;;7.68;2.78;;;18.80;99.90;;;;;;5061000;28;20033;-72
2022/07/23 08:09:13;;;;;;;4.20;2.50;;;18.80;99.90;;;;;;5063783;28;20035;-71
2022/07/23 08:11:39;;;;;;;3.85;2.22;;;18.80;99.90;;;;;;5057903;28;20068;-73
2022/07/23 08:14:04;;;;;;;5.85;2.65;;;18.80;99.90;;;;;;5067595;28;20531;-70
2022/07/23 08:16:30;;;;;;;5.75;2.38;;;18.90;99.90;;;;;;5060134;28;20056;-71
2022/07/23 08:18:55;;;;;;;6.93;2.60;;;19.00;99.90;;;;;;5055310;28;20040;-71
2022/07/23 08:21:21;;;;;;;6.32;2.20;;;19.20;99.90;;;;;;5059767;28;20033;-72
2022/07/23 08:23:47;;;;;;;6.32;2.22;;;19.40;99.90;;;;;;5059415;28;20183;-73
2022/07/23 08:26:13;;;;;;;6.75;2.30;;;19.50;99.90;;;;;;5060259;28;20119;-69
2022/07/23 08:28:38;;;;;;;5.95;3.03;;;19.40;99.90;;;;;;5058096;28;20037;-74
2022/07/23 08:31:05;;;;;;;4.15;2.28;;;19.30;99.90;;;;;;5057918;28;20214;-72
2022/07/23 08:33:31;;;;;;;4.25;2.60;;;19.10;99.90;;;;;;5058095;28;20063;-69
2022/07/23 08:35:58;;;;;;;5.75;2.70;;;18.80;99.90;;;;;;5059363;28;20040;-70
2022/07/23 08:38:24;;;;;;;3.90;2.30;;;18.60;99.90;;;;;;5068775;28;20052;-70
2022/07/23 08:40:53;;;;;;;5.18;2.40;;;18.50;99.90;;;;;;5074713;28;20079;-70
2022/07/23 08:43:24;;;;;;;5.38;2.20;;;18.40;99.90;;;;;;5071124;28;20054;-73
2022/07/23 08:45:53;;;;;;;4.10;2.60;;;18.30;99.90;;;;;;5061825;28;20471;-70
2022/07/23 08:48:24;;;;;;;5.10;2.38;;;18.30;99.90;;;;;;5063202;28;20131;-71
2022/07/23 08:50:58;;;;;;;5.97;2.42;;;18.20;99.90;;;;;;5085442;28;20040;-69
2022/07/23 08:53:25;;;;;;;3.95;2.60;;;18.20;99.90;;;;;;5066083;28;20036;-68
2022/07/23 08:55:52;;;;;;;6.70;2.10;;;18.30;99.90;;;;;;5072903;28;20048;-70
2022/07/23 08:58:19;;;;;;;4.43;2.30;;;18.40;99.90;;;;;;5067316;28;20471;-72
2022/07/23 09:00:46;;;;;;;4.70;2.20;;;18.60;99.90;;;;;;5068662;28;20061;-68
2022/07/23 09:03:26;;;;;;;4.00;1.88;;;18.80;99.90;;;;;;5079516;28;20048;-71
2022/07/23 09:05:52;;;;;;;3.45;1.98;;;18.90;99.90;;;;;;5065893;28;20045;-70
2022/07/23 09:08:21;;;;;;;7.15;2.10;;;19.10;99.90;;;;;;5052225;28;20036;-69
2022/07/23 09:10:59;;;;;;;4.57;2.47;;;19.10;99.90;;;;;;5055973;28;20048;-69
2022/07/23 09:13:27;;;;;;;3.15;1.83;;;19.10;99.90;;;;;;5050874;28;20044;-69
2022/07/23 09:15:54;;;;;;;5.38;2.22;;;19.10;99.90;;;;;;5054015;28;20064;-69
2022/07/23 09:18:32;;;;;;;5.80;2.10;;;19.00;99.90;;;;;;5055264;28;20126;-71
2022/07/23 09:21:07;;;;;;;6.00;2.47;;;19.20;99.90;;;;;;5059819;28;20062;-72
2022/07/23 09:23:40;;;;;;;6.10;2.20;;;19.20;99.90;;;;;;5055752;28;20071;-70
2022/07/23 09:26:37;;;;;;;4.75;2.15;;;19.10;99.90;;;;;;5054069;28;20363;-68
2022/07/23 09:29:12;;;;;;;3.70;2.15;;;18.90;99.90;;;;;;5061086;28;20136;-69
2022/07/23 09:32:04;;;;;;;5.65;2.40;;;18.90;99.90;;;;;;5053633;28;20322;-69
2022/07/23 09:34:38;;;;;;;5.65;2.33;;;19.00;99.90;;;;;;5069723;28;20037;-71
2022/07/23 09:37:12;;;;;;;4.60;2.33;;;19.20;99.90;;;;;;5068524;28;20079;-70
2022/07/23 09:39:37;;;;;;;4.57;1.83;;;19.50;99.90;;;;;;5074192;28;20057;-70
2022/07/23 09:42:25;;;;;;;4.65;1.95;;;19.60;99.90;;;;;;5052667;28;20068;-70
2022/07/23 09:44:56;;;;;;;6.45;2.58;;;19.70;99.90;;;;;;5063785;28;20052;-66
2022/07/23 09:47:24;;;;;;;4.82;2.28;;;19.70;99.90;;;;;;5064154;28;20427;-72
2022/07/23 09:50:05;;;;;;;4.35;2.35;;;19.70;99.90;;;;;;5066573;28;20493;-68
2022/07/23 09:52:34;;;;;;;4.13;2.05;;;19.90;99.90;;;;;;5061620;28;20392;-70
2022/07/23 09:55:01;;;;;;;4.47;2.20;;;19.90;99.90;;;;;;5061286;28;20043;-69
2022/07/23 09:57:27;;;;;;;3.47;2.30;;;20.00;99.90;;;;;;5070713;28;20074;-72
2022/07/23 09:59:57;;;;;;;3.60;2.30;;;20.10;99.90;;;;;;5066596;28;20044;-72
2022/07/23 10:02:25;;;;;;;3.80;2.42;;;20.10;99.90;;;;;;5069307;28;20048;-71
2022/07/23 10:04:53;;;;;;;4.35;2.20;;;20.30;99.90;;;;;;5062235;28;20032;-70
2022/07/23 10:07:21;;;;;;;5.35;2.25;;;20.30;99.90;;;;;;5049131;28;20040;-70
2022/07/23 10:09:48;;;;;;;3.70;2.20;;;20.30;99.90;;;;;;5064156;28;20040;-71
2022/07/23 10:14:59;;;;;;;3.67;2.40;;;20.10;99.90;;;;;;5057580;28;20044;-71
2022/07/23 10:17:27;;;;;;;5.63;2.55;;;20.10;99.90;;;;;;5064870;28;20155;-73
2022/07/23 10:19:54;;;;;;;5.45;2.40;;;20.10;99.90;;;;;;5061796;28;20044;-69
2022/07/23 10:22:24;;;;;;;3.50;2.65;;;20.30;99.90;;;;;;5069472;28;20407;-71
2022/07/23 10:24:53;;;;;;;4.72;2.78;;;20.20;99.90;;;;;;5064739;28;20044;-71
2022/07/23 10:27:55;;;;;;;6.90;2.65;;;20.20;99.90;;;;;;5056470;28;20556;-73
2022/07/23 10:30:40;;;;;;;3.30;2.40;;;20.30;99.90;;;;;;5072714;28;20041;-77
2022/07/23 10:33:17;;;;;;;4.28;2.50;;;20.60;99.90;;;;;;5074951;28;20055;-74
2022/07/23 10:35:54;;;;;;;6.85;2.85;;;20.30;99.90;;;;;;5077736;28;20087;-73
2022/07/23 10:38:32;;;;;;;4.53;2.45;;;20.00;99.90;;;;;;5061883;28;20135;-71
2022/07/23 10:41:01;;;;;;;3.97;3.15;;;19.90;99.90;;;;;;5074875;28;20036;-79
2022/07/23 10:43:28;;;;;;;3.80;2.67;;;20.10;99.90;;;;;;5060547;28;20044;-75
2022/07/23 10:45:56;;;;;;;4.65;2.45;;;20.30;99.90;;;;;;5065113;28;20040;-68
2022/07/23 10:48:29;;;;;;;4.35;2.70;;;20.50;99.90;;;;;;5057172;28;20503;-69
2022/07/23 10:51:15;;;;;;;4.97;2.80;;;20.40;99.90;;;;;;5055845;28;20033;-72
2022/07/23 10:53:58;;;;;;;5.53;3.30;;;20.60;99.90;;;;;;5068928;28;20430;-70
2022/07/23 10:56:52;;;;;;;5.40;2.90;;;20.60;99.90;;;;;;5066855;28;20051;-70
2022/07/23 10:59:18;;;;;;;6.50;3.30;;;20.60;99.90;;;;;;5068024;28;20048;-70
2022/07/23 11:01:43;;;;;;;6.05;3.00;;;20.60;99.90;;;;;;5073492;28;20085;-71
2022/07/23 11:04:10;;;;;;;5.72;2.85;;;20.40;99.90;;;;;;5070056;28;20438;-72
2022/07/23 11:06:48;;;;;;;5.38;3.00;;;20.40;99.90;;;;;;5071858;28;20095;-69
2022/07/23 11:09:27;;;;;;;6.70;3.67;;;20.50;99.90;;;;;;5072259;28;20402;-71
2022/07/23 11:12:18;;;;;;;5.45;3.35;;;20.70;99.90;;;;;;5064716;28;20298;-68
2022/07/23 11:15:04;;;;;;;4.10;2.80;;;20.60;99.90;;;;;;5056537;28;20045;-70
2022/07/23 11:17:32;;;;;;;5.78;2.88;;;20.50;99.90;;;;;;5065128;28;20040;-69
2022/07/23 11:20:07;;;;;;;5.78;3.15;;;20.40;99.90;;;;;;5076619;28;20064;-69
2022/07/23 11:23:00;;;;;;;5.60;3.25;;;20.30;99.90;;;;;;5062637;28;20040;-70
2022/07/23 11:25:27;;;;;;;5.47;3.00;;;20.30;99.90;;;;;;5065955;28;20063;-70
2022/07/23 11:27:54;;;;;;;5.53;3.65;;;20.10;99.90;;;;;;5064225;28;20074;-69
2022/07/23 11:30:26;;;;;;;5.63;3.60;;;20.00;99.90;;;;;;5056800;28;20045;-71
2022/07/23 11:32:53;;;;;;;5.55;3.25;;;20.10;99.90;;;;;;5052599;28;20403;-69
2022/07/23 11:35:27;;;;;;;5.32;3.42;;;20.30;99.90;;;;;;5072554;28;20044;-70
2022/07/23 11:38:14;;;;;;;5.35;3.70;;;20.60;99.90;;;;;;5071191;28;20048;-68
2022/07/23 11:40:40;;;;;;;6.32;3.67;;;20.90;99.90;;;;;;5069367;28;20392;-70
2022/07/23 11:43:09;;;;;;;6.35;3.80;;;20.90;99.90;;;;;;5064124;28;20033;-69
2022/07/23 11:45:48;;;;;;;7.88;3.83;;;21.00;99.90;;;;;;5077648;28;20064;-71
2022/07/23 11:48:28;;;;;;;7.45;3.70;;;21.30;99.90;;;;;;5062848;28;20113;-68
2022/07/23 11:50:55;;;;;;;6.40;3.88;;;21.40;99.90;;;;;;5057588;28;20044;-70
2022/07/23 11:53:31;;;;;;;6.10;3.92;;;21.50;99.90;;;;;;5070610;28;20037;-71
2022/07/23 11:56:09;;;;;;;6.03;3.88;;;21.60;99.90;;;;;;5062629;28;20043;-71
2022/07/23 11:58:36;;;;;;;8.50;3.95;;;21.60;99.90;;;;;;5071942;28;20043;-70
2022/07/23 12:01:03;;;;;;;5.35;3.30;;;21.50;99.90;;;;;;5069799;28;20135;-70
2022/07/23 12:03:29;;;;;;;5.53;3.80;;;21.50;99.90;;;;;;5063407;28;20430;-71
2022/07/23 12:05:59;;;;;;;5.22;3.75;;;21.50;99.90;;;;;;5068764;28;20051;-70
2022/07/23 12:08:26;;;;;;;6.35;4.03;;;21.40;99.90;;;;;;5071620;28;20048;-69
2022/07/23 12:10:52;;;;;;;5.95;3.80;;;21.30;99.90;;;;;;5069571;28;20063;-68
2022/07/23 12:13:21;;;;;;;5.30;3.78;;;21.00;99.90;;;;;;5072728;28;20051;-71
2022/07/23 12:15:52;;;;;;;9.00;4.07;;;20.90;99.90;;;;;;5071278;28;20136;-70
2022/07/23 12:18:21;;;;;;;5.55;3.85;;;20.80;99.90;;;;;;5061833;28;20136;-69
2022/07/23 12:20:50;;;;;;;7.43;3.65;;;20.80;99.90;;;;;;5063897;28;20094;-71
2022/07/23 12:23:17;;;;;;;6.40;3.60;;;21.00;99.90;;;;;;5065971;28;20043;-69
2022/07/23 12:25:45;;;;;;;7.30;3.90;;;21.00;99.90;;;;;;5063735;28;20033;-70
2022/07/23 12:28:14;;;;;;;5.38;3.80;;;21.00;99.90;;;;;;5070437;28;20076;-66
2022/07/23 12:30:54;;;;;;;7.70;3.90;;;21.10;99.90;;;;;;5071929;28;20036;-67
2022/07/23 12:33:28;;;;;;;5.47;3.80;;;21.30;99.90;;;;;;5070629;28;20040;-68
2022/07/23 12:35:56;;;;;;;4.70;3.80;;;21.20;99.90;;;;;;5053257;28;20063;-68
2022/07/23 12:38:23;;;;;;;6.00;4.18;;;21.10;99.90;;;;;;5068864;28;20119;-70
2022/07/23 12:40:50;;;;;;;6.13;3.92;;;21.00;99.90;;;;;;5057857;28;20039;-70
2022/07/23 12:43:26;;;;;;;7.78;3.55;;;21.00;99.90;;;;;;5070674;28;20064;-69
2022/07/23 12:46:16;;;;;;;4.93;3.92;;;21.00;99.90;;;;;;5056990;28;20119;-68
2022/07/23 12:48:54;;;;;;;7.50;3.90;;;21.00;99.90;;;;;;5063243;28;20040;-70
2022/07/23 12:51:26;;;;;;;9.98;4.00;;;21.00;99.90;;;;;;5069243;28;20295;-69